LFRD

Dinard-Pleurtuit-Saint-Malo Airport

Dinard/Pleurtuit/Saint-Malo, France
TAF AMD LFRD 230809Z 2308/2406 31010KT 9999 BKN030 PROB40 TEMPO 2308/2312 BKN012 BECMG 2318/2320 VRB03KT
Issued Valid From Valid To
Apr-23 @ 08:09 UTC
(an hour ago)
Apr-23 @ 08:00 UTC
(an hour ago)
Apr-24 @ 06:00 UTC
(in 21 hours)
Apr-23 @ 08:00 to Apr-23 @ 18:00
TAF AMD LFRD 230809Z 2308/2406 31010KT 9999 BKN030
Wind Visibility Clouds
310° at 10 knots 10,000+ meters
  • Broken at 3,000' AGL
Temporary  (Probability 40%) Apr-23 @ 08:00 to Apr-23 @ 12:00
PROB40 TEMPO 2308/2312 BKN012
Clouds
  • Broken at 1,200' AGL
Becoming Apr-23 @ 18:00 to Apr-24 @ 06:00
BECMG 2318/2320 VRB03KT
Wind Visibility Clouds
Variable at 3 knots 10,000+ meters
  • Broken at 3,000' AGL
TAF AMD LFRD 230809Z 2308/2406 31010KT 9999 BKN030 PROB40 TEMPO 2308/2312 BKN012 BECMG 2318/2320 VRB03KT
Issued Apr-23 @ 08:09 UTC
(an hour ago)
Valid From Apr-23 @ 08:00 UTC
(an hour ago)
Valid To Apr-24 @ 06:00 UTC
(in 21 hours)
Apr-23 @ 08:00 - Apr-23 @ 18:00
Wind Visibility
310° at 10 knots 10,000+ meters
Clouds
  • Broken at 3,000' AGL
Probability 40% Temporary Apr-23 @ 08:00 - Apr-23 @ 12:00
Clouds
  • Broken at 1,200' AGL
Becoming Apr-23 @ 18:00 - Apr-24 @ 06:00
Wind Visibility
Variable at 3 knots 10,000+ meters
Clouds
  • Broken at 3,000' AGL